Meteo Giornale » Osservazioni meteo Kazakhstan » Aktjubinsk
ore: 09:30 - Osservazioni Meteo Aktjubinsk
Lat. 50° 17' N Lon. 57° 9' E Alt. 227 metri s.l.m.
17 °C
Sereno
Temp. 24 Ore
5 °C
20 °C
Nord
7.2 Km/h
Dew point 0 °C
Umidità 31 %
Visibilità 10 Km
Il sole sorge alle ore 06:25
Il sole tramonta alle ore 19:56
| Data e Ora | Cielo e Fenomeni | T °C | DP °C | Um. % | Pres. hPa | Vis. km | Vento km/h | |
|---|---|---|---|---|---|---|---|---|
| Oggi h: 09:30 | Sereno | 17 | 0 | 31 | 1023 | 10 | N 7.2 | |
| Oggi h: 09:00 | Sereno | 16 | 0 | 33 | 1023 | 10 | N 3.6 | |
| Oggi h: 08:30 | Sereno | 14 | 0 | 38 | 1023 | 10 | N 3.6 | |
| Oggi h: 08:00 | Sereno | 11 | 0 | 46 | 1023 | 10 | N 3.6 | |
| Oggi h: 07:30 | Sereno | 8 | 0 | 56 | 1023 | 10 | N 7.2 | |
| Oggi h: 07:00 | Sereno | 5 | -1 | 65 | 1022 | 10 | N 7.2 | |
| Oggi h: 06:30 | Sereno | 5 | -1 | 65 | 1022 | 10 | N 7.2 | |
| Oggi h: 06:00 | Sereno | 5 | -1 | 65 | 1022 | 10 | S/SE 10.8 | |
| Oggi h: 05:30 | Sereno | 5 | -2 | 60 | 1022 | 10 | N 7.2 | |
| Oggi h: 05:00 | Sereno | 6 | -1 | 60 | 1022 | 10 | N 7.2 | |
| Oggi h: 04:30 | Sereno | 9 | 0 | 53 | 1022 | 10 | N 0 | |
| Oggi h: 04:00 | Sereno | 9 | 0 | 53 | 1022 | 10 | N 3.6 | |
| Oggi h: 03:30 | Sereno | 8 | 0 | 56 | 1022 | 10 | N 3.6 | |
| Oggi h: 03:00 | Sereno | 8 | 0 | 56 | 1022 | 10 | N 0 | |
| Oggi h: 02:30 | Sereno | 8 | 0 | 56 | 1022 | 10 | N 7.2 | |
| Oggi h: 02:00 | Sereno | 8 | 1 | 61 | 1022 | 10 | N 7.2 | |
| Oggi h: 01:30 | Sereno | 9 | 0 | 53 | 1022 | 10 | N 7.2 | |
| Oggi h: 01:00 | Sereno | 8 | 1 | 61 | 1022 | 10 | N 7.2 | |
| Oggi h: 00:30 | Sereno | 9 | 0 | 53 | 1022 | 10 | N 7.2 | |
| Oggi h: 00:00 | Sereno | 10 | 1 | 53 | 1022 | 10 | N 7.2 | |
| Ieri h: 23:30 | Sereno | 10 | 0 | 49 | 1022 | 10 | O/SO 10.8 | |
| Ieri h: 23:00 | Sereno | 11 | 0 | 46 | 1022 | 10 | SO 10.8 | |
| Ieri h: 22:30 | Sereno | 10 | -1 | 46 | 1022 | 10 | SO 14.4 | |
| Ieri h: 22:00 | Sereno | 10 | 0 | 49 | 1022 | 10 | SO 14.4 | |
| Ieri h: 21:30 | Sereno | 12 | -1 | 40 | 1022 | 10 | SO 14.4 | |
| Ieri h: 21:00 | Sereno | 15 | 0 | 35 | 1022 | 10 | O 10.8 | |
| Ieri h: 20:30 | Sereno | 15 | 0 | 35 | 1022 | 10 | O 10.8 | |
| Ieri h: 20:00 | Sereno | 17 | -1 | 29 | 1021 | 10 | O/NO 14.4 | |
| Ieri h: 19:30 | Sereno | 18 | -1 | 27 | 1021 | 10 | O/NO 18 | |
| Ieri h: 19:00 | Sereno | 19 | -1 | 25 | 1021 | 10 | O/NO 18 | |
| Ieri h: 18:30 | Sereno | 20 | -1 | 24 | 1021 | 10 | O/NO 21.6 | |
| Ieri h: 18:00 | Sereno | 20 | 0 | 26 | 1021 | 10 | O/NO 21.6 | |
| Ieri h: 17:30 | Sereno | 20 | -1 | 24 | 1021 | 10 | O/NO 14.4 | |
| Ieri h: 17:00 | Sereno | 20 | 0 | 26 | 1022 | 10 | O/NO 21.6 | |
| Ieri h: 16:30 | Sereno | 19 | -1 | 25 | 1022 | 10 | O/NO 18 | |
| Ieri h: 16:00 | Sereno | 20 | 0 | 26 | 1022 | 10 | NO 18 | |
| Ieri h: 15:30 | Sereno | 19 | 0 | 27 | 1022 | 10 | NO 21.6 | |
| Ieri h: 15:00 | Sereno | 19 | 0 | 27 | 1022 | 10 | O/NO 25.2 | |
| Ieri h: 14:30 | Sereno | 19 | 0 | 27 | 1022 | 10 | N 18 | |
| Ieri h: 14:00 | Sereno | 18 | 1 | 31 | 1022 | 10 | N/NO 10.8 | |
| Ieri h: 13:30 | Sereno | 17 | 0 | 31 | 1023 | 10 | NO 18 | |
| Ieri h: 13:00 | Sereno | 18 | 0 | 29 | 1023 | 10 | N 18 | |
| Ieri h: 12:30 | Sereno | 17 | 0 | 31 | 1024 | 10 | N/NO 21.6 | |
| Ieri h: 12:00 | Sereno | 17 | 0 | 31 | 1024 | 10 | N 21.6 | |
| Ieri h: 11:30 | Sereno | 16 | 0 | 33 | 1024 | 10 | N/NO 14.4 | |
| Ieri h: 11:00 | Sereno | 15 | 0 | 35 | 1024 | 10 | NO 10.8 | |



